Time;durP1;ratioP1;P1;durP2;ratioP2;P2;SDS_P1;SDS_P2;PMS_P1;PMS_P2;Temp;Humidity;BMP_temperature;BMP_pressure;BME280_temperature;BME280_humidity;BME280_pressure;Samples;Min_cycle;Max_cycle;Signal;HPM_P1;HPM_P2
2024/04/13 05:00:23;;;;;;;18.17;9.37;;;;;;;;;;6563631;21;20568;-89
2024/04/13 05:02:49;;;;;;;16.03;9.90;;;;;;;;;;5241503;27;20532;-74
2024/04/13 05:05:15;;;;;;;28.03;10.10;;;;;;;;;;5243024;27;20556;-74
2024/04/13 05:07:41;;;;;;;20.87;10.53;;;;;;;;;;5243423;27;20877;-74
2024/04/13 05:10:10;;;;;;;15.33;8.80;;;;;;;;;;5236450;27;20568;-74
2024/04/13 05:12:36;;;;;;;23.07;10.40;;;;;;;;;;5239468;27;20571;-74
2024/04/13 05:15:02;;;;;;;15.13;8.70;;;;;;;;;;5242583;27;20439;-74
2024/04/13 05:17:28;;;;;;;19.40;10.67;;;;;;;;;;5243695;27;20447;-74
2024/04/13 05:19:54;;;;;;;14.90;9.97;;;;;;;;;;5242019;27;20593;-75
2024/04/13 05:22:20;;;;;;;19.50;10.50;;;;;;;;;;5243336;27;20519;-75
2024/04/13 05:24:46;;;;;;;16.73;9.73;;;;;;;;;;5243739;27;20540;-74
2024/04/13 05:27:12;;;;;;;17.03;10.07;;;;;;;;;;5243279;27;20533;-74
2024/04/13 05:29:39;;;;;;;23.73;9.70;;;;;;;;;;5243492;27;20512;-74
2024/04/13 05:32:05;;;;;;;14.90;9.47;;;;;;;;;;5243779;27;20528;-74
2024/04/13 05:34:32;;;;;;;23.40;9.40;;;;;;;;;;5246821;27;20567;-74
2024/04/13 05:36:58;;;;;;;17.43;8.87;;;;;;;;;;5243298;27;20452;-73
2024/04/13 05:39:24;;;;;;;16.80;9.43;;;;;;;;;;5243428;27;20505;-75
2024/04/13 05:41:50;;;;;;;15.40;8.20;;;;;;;;;;5243044;27;20467;-74
2024/04/13 05:44:16;;;;;;;17.73;9.63;;;;;;;;;;5243463;27;20568;-75
2024/04/13 05:46:41;;;;;;;21.33;9.10;;;;;;;;;;5242685;27;20456;-74
2024/04/13 05:49:08;;;;;;;14.67;9.10;;;;;;;;;;5242966;27;20504;-74
2024/04/13 05:51:34;;;;;;;18.33;8.70;;;;;;;;;;5241821;27;20990;-75
2024/04/13 05:54:00;;;;;;;17.50;8.60;;;;;;;;;;5243254;27;20444;-75
2024/04/13 05:56:26;;;;;;;18.40;8.47;;;;;;;;;;5242705;27;20443;-75
2024/04/13 05:58:52;;;;;;;12.10;8.23;;;;;;;;;;5243314;27;20455;-75
2024/04/13 06:01:17;;;;;;;13.53;8.63;;;;;;;;;;5241009;27;20549;-75
2024/04/13 06:03:43;;;;;;;24.07;9.60;;;;;;;;;;5241914;27;20459;-75
2024/04/13 06:06:09;;;;;;;15.03;8.07;;;;;;;;;;5242719;27;20568;-76
2024/04/13 06:08:35;;;;;;;14.60;8.57;;;;;;;;;;5241334;27;20564;-75
2024/04/13 06:11:03;;;;;;;12.30;7.63;;;;;;;;;;5242901;27;20472;-76
2024/04/13 06:13:29;;;;;;;14.77;7.83;;;;;;;;;;5240976;27;20492;-77
2024/04/13 06:15:54;;;;;;;13.20;8.20;;;;;;;;;;5242200;27;20447;-77
2024/04/13 06:18:21;;;;;;;18.33;8.40;;;;;;;;;;5242391;27;21010;-77
2024/04/13 06:20:47;;;;;;;14.43;8.53;;;;;;;;;;5297984;26;20480;-76
2024/04/13 06:23:12;;;;;;;12.80;8.07;;;;;;;;;;5303592;27;20563;-76
2024/04/13 06:25:38;;;;;;;12.87;8.60;;;;;;;;;;5275782;27;20553;-75
2024/04/13 06:28:04;;;;;;;12.63;7.70;;;;;;;;;;5276081;27;20990;-75
2024/04/13 06:30:30;;;;;;;12.80;7.83;;;;;;;;;;5278738;27;20462;-77
2024/04/13 06:32:56;;;;;;;16.13;8.67;;;;;;;;;;5276084;27;20506;-75
2024/04/13 06:35:22;;;;;;;14.60;8.10;;;;;;;;;;5298779;26;20901;-76
2024/04/13 06:37:48;;;;;;;12.97;8.30;;;;;;;;;;5266473;27;20892;-76
2024/04/13 06:40:14;;;;;;;14.30;8.20;;;;;;;;;;5275888;27;20458;-76
2024/04/13 06:42:40;;;;;;;10.83;7.83;;;;;;;;;;5275472;27;20466;-77
2024/04/13 06:45:06;;;;;;;13.50;8.70;;;;;;;;;;5303089;27;20470;-76
2024/04/13 06:47:32;;;;;;;17.80;7.80;;;;;;;;;;5276010;27;20458;-76
2024/04/13 06:49:58;;;;;;;11.07;8.20;;;;;;;;;;5302716;27;20462;-76
2024/04/13 06:52:24;;;;;;;15.43;8.67;;;;;;;;;;5245765;27;21054;-76
2024/04/13 06:54:50;;;;;;;16.00;8.73;;;;;;;;;;5242258;27;20452;-75
2024/04/13 06:57:17;;;;;;;9.90;6.77;;;;;;;;;;5242167;27;20573;-76
2024/04/13 06:59:44;;;;;;;14.43;8.03;;;;;;;;;;5240508;27;20471;-78
2024/04/13 07:02:10;;;;;;;11.80;6.60;;;;;;;;;;5240621;27;20487;-76
2024/04/13 07:04:36;;;;;;;13.03;8.07;;;;;;;;;;5242821;27;20918;-77
2024/04/13 07:07:02;;;;;;;12.60;7.50;;;;;;;;;;5274360;27;20517;-76
2024/04/13 07:09:28;;;;;;;9.50;6.87;;;;;;;;;;5275834;27;20510;-76
2024/04/13 07:11:56;;;;;;;11.40;7.97;;;;;;;;;;5237002;27;20479;-77
2024/04/13 07:14:22;;;;;;;15.40;8.13;;;;;;;;;;5240338;27;20587;-77
2024/04/13 07:16:49;;;;;;;16.00;7.20;;;;;;;;;;5239610;27;20564;-77
2024/04/13 07:19:15;;;;;;;12.67;6.97;;;;;;;;;;5240530;27;20546;-76
2024/04/13 07:21:41;;;;;;;12.97;7.90;;;;;;;;;;5239914;27;21049;-76
2024/04/13 07:24:07;;;;;;;12.10;7.33;;;;;;;;;;5243970;27;20443;-76
2024/04/13 07:26:33;;;;;;;13.70;7.20;;;;;;;;;;5242326;27;20467;-76
2024/04/13 07:28:59;;;;;;;9.37;6.70;;;;;;;;;;5246253;27;20455;-77
2024/04/13 07:31:25;;;;;;;14.47;8.00;;;;;;;;;;5248343;27;20522;-77
2024/04/13 07:33:51;;;;;;;12.90;7.50;;;;;;;;;;5247289;27;20459;-75
2024/04/13 07:36:17;;;;;;;12.63;7.10;;;;;;;;;;5258617;27;20505;-77
2024/04/13 07:38:43;;;;;;;14.10;6.83;;;;;;;;;;5281942;27;20446;-77
2024/04/13 07:41:09;;;;;;;8.77;6.80;;;;;;;;;;5283959;27;20482;-77
2024/04/13 07:43:35;;;;;;;12.47;5.80;;;;;;;;;;5312331;26;20840;-77
2024/04/13 07:46:01;;;;;;;15.93;7.67;;;;;;;;;;5283760;27;20506;-77
2024/04/13 07:48:27;;;;;;;17.10;8.47;;;;;;;;;;5281491;27;20450;-77
2024/04/13 07:50:53;;;;;;;11.53;7.57;;;;;;;;;;5310208;27;20477;-78
2024/04/13 07:53:19;;;;;;;12.67;7.30;;;;;;;;;;5282011;27;20494;-78
2024/04/13 07:55:45;;;;;;;13.67;6.47;;;;;;;;;;5281794;27;20458;-77
2024/04/13 07:58:11;;;;;;;15.83;7.67;;;;;;;;;;5308751;27;20478;-78
2024/04/13 08:00:39;;;;;;;20.50;6.40;;;;;;;;;;5282372;27;20466;-78
2024/04/13 08:03:05;;;;;;;10.47;7.00;;;;;;;;;;5283098;27;20552;-78
2024/04/13 08:05:31;;;;;;;13.00;6.97;;;;;;;;;;5254840;27;20463;-78
2024/04/13 08:07:57;;;;;;;14.43;7.00;;;;;;;;;;5246247;27;20495;-77
2024/04/13 08:10:23;;;;;;;10.87;5.80;;;;;;;;;;5248774;27;20979;-77
2024/04/13 08:12:49;;;;;;;13.80;7.80;;;;;;;;;;5247504;27;21000;-76
2024/04/13 08:15:15;;;;;;;11.83;6.90;;;;;;;;;;5249046;27;20468;-77
2024/04/13 08:17:41;;;;;;;11.03;7.00;;;;;;;;;;5248372;27;20499;-77
2024/04/13 08:20:09;;;;;;;11.90;7.10;;;;;;;;;;5248875;27;20451;-77
2024/04/13 08:22:35;;;;;;;11.50;6.70;;;;;;;;;;5248230;27;20447;-76
2024/04/13 08:25:01;;;;;;;10.13;6.83;;;;;;;;;;5252086;27;20873;-77
2024/04/13 08:27:27;;;;;;;13.47;6.77;;;;;;;;;;5252031;27;20451;-76
2024/04/13 08:29:53;;;;;;;8.83;5.80;;;;;;;;;;5250786;27;20495;-76
2024/04/13 08:32:19;;;;;;;12.67;7.07;;;;;;;;;;5253461;27;20527;-76
2024/04/13 08:34:45;;;;;;;15.43;6.27;;;;;;;;;;5250258;27;20443;-78
2024/04/13 08:37:11;;;;;;;12.37;6.00;;;;;;;;;;5255080;27;20863;-77
2024/04/13 08:39:37;;;;;;;13.70;6.13;;;;;;;;;;5256546;27;20523;-78
2024/04/13 08:42:10;;;;;;;14.70;5.90;;;;;;;;;;5254706;27;20475;-77
2024/04/13 08:44:38;;;;;;;13.63;6.47;;;;;;;;;;5252661;27;20571;-77
2024/04/13 08:47:04;;;;;;;10.80;5.90;;;;;;;;;;5250621;27;20452;-77
2024/04/13 08:49:31;;;;;;;8.97;5.60;;;;;;;;;;5254728;27;20451;-77
2024/04/13 08:51:57;;;;;;;17.17;6.27;;;;;;;;;;5247847;27;20537;-78
2024/04/13 08:54:24;;;;;;;8.13;5.80;;;;;;;;;;5247219;27;21031;-76
2024/04/13 08:56:50;;;;;;;13.77;5.47;;;;;;;;;;5245218;27;20511;-77
2024/04/13 08:59:17;;;;;;;14.17;6.07;;;;;;;;;;5247837;27;20581;-77
2024/04/13 09:01:44;;;;;;;7.33;5.40;;;;;;;;;;5248368;27;20561;-77
2024/04/13 09:04:10;;;;;;;12.20;6.40;;;;;;;;;;5250061;27;20908;-78
2024/04/13 09:06:37;;;;;;;22.63;5.30;;;;;;;;;;5249280;27;20456;-77
2024/04/13 09:09:08;;;;;;;7.93;4.63;;;;;;;;;;5255753;27;20827;-77
2024/04/13 09:11:37;;;;;;;12.40;5.60;;;;;;;;;;5245870;27;20473;-75
2024/04/13 09:14:06;;;;;;;13.67;4.60;;;;;;;;;;5251170;27;20539;-77
2024/04/13 09:16:33;;;;;;;8.00;4.70;;;;;;;;;;5255509;27;20456;-76
2024/04/13 09:18:59;;;;;;;14.70;4.00;;;;;;;;;;5256096;27;20463;-77
2024/04/13 09:21:27;;;;;;;11.40;4.07;;;;;;;;;;5251670;27;21260;-77
2024/04/13 09:23:55;;;;;;;6.77;3.60;;;;;;;;;;5244207;27;20525;-77
2024/04/13 09:26:24;;;;;;;7.97;4.60;;;;;;;;;;5247277;27;20471;-78
2024/04/13 09:28:50;;;;;;;15.70;4.43;;;;;;;;;;5246889;27;20444;-76
2024/04/13 09:31:17;;;;;;;10.53;3.90;;;;;;;;;;5249031;27;20520;-78
2024/04/13 09:33:53;;;;;;;7.57;3.23;;;;;;;;;;5247259;27;20467;-77
2024/04/13 09:36:22;;;;;;;5.50;3.70;;;;;;;;;;5244759;27;20451;-77
2024/04/13 09:38:49;;;;;;;11.27;4.67;;;;;;;;;;5247768;27;20531;-77
2024/04/13 09:41:15;;;;;;;6.37;3.47;;;;;;;;;;5260323;27;20471;-77
2024/04/13 09:43:41;;;;;;;6.30;3.73;;;;;;;;;;5254196;27;20455;-77
2024/04/13 09:46:07;;;;;;;8.07;3.60;;;;;;;;;;5248615;27;21066;-77
2024/04/13 09:48:33;;;;;;;6.73;3.20;;;;;;;;;;5248903;27;20571;-77
2024/04/13 09:51:00;;;;;;;6.20;2.90;;;;;;;;;;5255309;27;20582;-76
2024/04/13 09:53:26;;;;;;;9.83;2.90;;;;;;;;;;5248558;27;20600;-77
2024/04/13 09:55:52;;;;;;;6.30;2.53;;;;;;;;;;5246643;27;20498;-76
2024/04/13 09:58:18;;;;;;;5.10;3.10;;;;;;;;;;5246775;27;20995;-76
2024/04/13 10:00:46;;;;;;;3.40;2.30;;;;;;;;;;5245800;27;20512;-77
2024/04/13 10:03:13;;;;;;;4.63;2.43;;;;;;;;;;5246577;27;20455;-78
2024/04/13 10:05:39;;;;;;;5.90;3.10;;;;;;;;;;5246082;27;20447;-77
2024/04/13 10:08:07;;;;;;;6.13;3.37;;;;;;;;;;5263713;27;20462;-77
2024/04/13 10:10:35;;;;;;;9.13;3.00;;;;;;;;;;5306641;27;20985;-77
2024/04/13 10:13:02;;;;;;;3.90;2.83;;;;;;;;;;5305850;27;20503;-77
2024/04/13 10:15:28;;;;;;;10.00;3.23;;;;;;;;;;5279088;27;20989;-77
2024/04/13 10:17:54;;;;;;;7.37;3.30;;;;;;;;;;5279414;27;20861;-78
2024/04/13 10:20:20;;;;;;;7.17;2.30;;;;;;;;;;5278732;27;20451;-77
2024/04/13 10:22:56;;;;;;;6.17;2.90;;;;;;;;;;5279995;27;20462;-77
2024/04/13 10:25:29;;;;;;;7.07;3.23;;;;;;;;;;5279678;27;20546;-77
2024/04/13 10:28:05;;;;;;;5.50;2.87;;;;;;;;;;5280734;27;20522;-77
2024/04/13 10:30:50;;;;;;;5.80;2.83;;;;;;;;;;5279589;27;20516;-77
2024/04/13 10:33:31;;;;;;;7.83;3.30;;;;;;;;;;5276204;27;20454;-77
2024/04/13 10:35:58;;;;;;;5.23;2.73;;;;;;;;;;5272648;27;20470;-77
2024/04/13 10:38:25;;;;;;;5.20;3.23;;;;;;;;;;5278350;27;20450;-77
2024/04/13 10:40:51;;;;;;;6.27;3.23;;;;;;;;;;5281071;27;20526;-77
2024/04/13 10:43:18;;;;;;;6.13;3.03;;;;;;;;;;5280288;27;20458;-77
2024/04/13 10:45:49;;;;;;;9.70;3.63;;;;;;;;;;5280979;27;20533;-77
2024/04/13 10:48:17;;;;;;;10.63;3.83;;;;;;;;;;5280815;27;20458;-76
2024/04/13 10:50:43;;;;;;;5.93;3.20;;;;;;;;;;5315548;27;20478;-75
2024/04/13 10:53:11;;;;;;;9.37;3.30;;;;;;;;;;5289403;27;20539;-77
2024/04/13 10:55:37;;;;;;;10.57;2.83;;;;;;;;;;5287261;27;20497;-76
2024/04/13 10:58:04;;;;;;;5.10;2.90;;;;;;;;;;5283686;27;20462;-77
2024/04/13 11:00:30;;;;;;;6.87;2.60;;;;;;;;;;5279858;27;20833;-77
2024/04/13 11:02:56;;;;;;;6.23;2.63;;;;;;;;;;5309098;27;20627;-76
2024/04/13 11:05:22;;;;;;;10.77;3.33;;;;;;;;;;5285219;27;20513;-78
2024/04/13 11:07:51;;;;;;;7.10;2.87;;;;;;;;;;5291102;27;20506;-78
2024/04/13 11:10:18;;;;;;;4.20;2.57;;;;;;;;;;5286220;27;20502;-78
2024/04/13 11:12:45;;;;;;;6.23;2.97;;;;;;;;;;5253357;27;20556;-77
2024/04/13 11:15:11;;;;;;;4.70;2.77;;;;;;;;;;5284158;21;20520;-79
2024/04/13 11:17:37;;;;;;;4.10;2.77;;;;;;;;;;5317226;26;20566;-77
2024/04/13 11:20:03;;;;;;;10.07;3.63;;;;;;;;;;5313911;26;20448;-78
2024/04/13 11:22:29;;;;;;;11.50;3.87;;;;;;;;;;5311867;26;20528;-78
2024/04/13 11:24:55;;;;;;;6.23;3.30;;;;;;;;;;5312692;26;20538;-79
2024/04/13 11:27:22;;;;;;;4.20;2.93;;;;;;;;;;5315127;26;20444;-78
2024/04/13 11:29:48;;;;;;;5.33;3.40;;;;;;;;;;5323496;26;20445;-78
2024/04/13 11:32:15;;;;;;;8.00;3.10;;;;;;;;;;5341301;26;20524;-78
2024/04/13 11:34:41;;;;;;;8.87;3.00;;;;;;;;;;5347550;26;20459;-78
2024/04/13 11:37:10;;;;;;;6.73;3.33;;;;;;;;;;5346797;26;20467;-78
2024/04/13 11:39:36;;;;;;;6.43;3.00;;;;;;;;;;5347282;26;20500;-78
2024/04/13 11:42:03;;;;;;;5.80;2.80;;;;;;;;;;5347841;26;20785;-78
2024/04/13 11:44:29;;;;;;;5.33;3.03;;;;;;;;;;5347462;26;21033;-78
2024/04/13 11:46:55;;;;;;;9.83;3.70;;;;;;;;;;5346804;26;20506;-78
2024/04/13 11:49:21;;;;;;;4.40;2.60;;;;;;;;;;5347526;26;20515;-78
2024/04/13 11:51:47;;;;;;;5.33;3.50;;;;;;;;;;5347555;26;20451;-77
2024/04/13 11:54:13;;;;;;;8.63;3.37;;;;;;;;;;5346912;26;20440;-78
2024/04/13 11:56:40;;;;;;;5.37;3.00;;;;;;;;;;5344655;26;20477;-78
2024/04/13 11:59:06;;;;;;;8.67;3.20;;;;;;;;;;5345876;26;20471;-78
2024/04/13 12:01:32;;;;;;;7.23;3.33;;;;;;;;;;5347612;26;20547;-78
2024/04/13 12:03:58;;;;;;;8.30;3.70;;;;;;;;;;5347632;26;20973;-79
2024/04/13 12:06:24;;;;;;;9.80;3.90;;;;;;;;;;5348803;26;20874;-79
2024/04/13 12:08:50;;;;;;;8.90;3.60;;;;;;;;;;5346155;26;20537;-78
2024/04/13 12:11:16;;;;;;;5.70;3.30;;;;;;;;;;5347470;26;20447;-78
2024/04/13 12:13:43;;;;;;;4.37;3.07;;;;;;;;;;5346990;26;20495;-79
2024/04/13 12:16:09;;;;;;;5.53;2.90;;;;;;;;;;5345740;26;20468;-79
2024/04/13 12:18:35;;;;;;;3.93;2.77;;;;;;;;;;5347364;26;21049;-79
2024/04/13 12:21:01;;;;;;;5.93;2.90;;;;;;;;;;5348103;26;20451;-79
2024/04/13 12:23:27;;;;;;;4.57;3.20;;;;;;;;;;5347702;26;20448;-79
2024/04/13 12:25:54;;;;;;;7.20;3.07;;;;;;;;;;5339585;26;20460;-79
2024/04/13 12:28:20;;;;;;;6.93;3.53;;;;;;;;;;5313305;26;20445;-79
2024/04/13 12:30:46;;;;;;;7.07;3.43;;;;;;;;;;5313418;26;20576;-79
2024/04/13 12:33:12;;;;;;;7.90;3.10;;;;;;;;;;5313001;26;20469;-79
2024/04/13 12:35:38;;;;;;;5.57;3.70;;;;;;;;;;5316000;26;20536;-79
2024/04/13 12:38:04;;;;;;;8.43;3.50;;;;;;;;;;5317663;26;20568;-79
2024/04/13 12:40:30;;;;;;;8.33;4.00;;;;;;;;;;5322146;26;20452;-79
2024/04/13 12:42:56;;;;;;;6.97;3.30;;;;;;;;;;5321771;26;20527;-79
2024/04/13 12:45:23;;;;;;;5.43;3.50;;;;;;;;;;5317750;26;20465;-78
2024/04/13 12:47:49;;;;;;;8.00;3.40;;;;;;;;;;5317873;26;20452;-78
2024/04/13 12:50:15;;;;;;;4.50;3.13;;;;;;;;;;5315764;26;20587;-78
2024/04/13 12:52:41;;;;;;;9.33;3.67;;;;;;;;;;5310316;26;20514;-78
2024/04/13 12:55:08;;;;;;;6.00;3.23;;;;;;;;;;5311482;26;21235;-78
2024/04/13 12:57:35;;;;;;;6.50;3.37;;;;;;;;;;5309594;26;20576;-78
2024/04/13 13:00:03;;;;;;;11.40;3.30;;;;;;;;;;5312263;26;20597;-78
2024/04/13 13:02:29;;;;;;;7.50;3.50;;;;;;;;;;5311798;26;20457;-78
2024/04/13 13:04:55;;;;;;;7.40;3.33;;;;;;;;;;5312637;26;20532;-78
2024/04/13 13:07:21;;;;;;;6.10;3.23;;;;;;;;;;5342329;26;20523;-78
2024/04/13 13:09:47;;;;;;;12.03;3.30;;;;;;;;;;5347424;26;20566;-78
2024/04/13 13:12:13;;;;;;;13.03;3.97;;;;;;;;;;5338478;26;20591;-78
2024/04/13 13:14:40;;;;;;;7.80;3.07;;;;;;;;;;5301322;26;21085;-78
2024/04/13 13:17:07;;;;;;;5.47;3.20;;;;;;;;;;5310218;26;20528;-78
2024/04/13 13:19:33;;;;;;;5.50;3.00;;;;;;;;;;5309813;26;20553;-77
2024/04/13 13:21:59;;;;;;;4.70;3.10;;;;;;;;;;5311011;26;20453;-78
2024/04/13 13:24:25;;;;;;;4.23;3.10;;;;;;;;;;5309367;26;20441;-79
2024/04/13 13:26:51;;;;;;;9.67;3.57;;;;;;;;;;5310817;26;20449;-78
2024/04/13 13:29:19;;;;;;;7.83;3.30;;;;;;;;;;5311112;26;20445;-78
2024/04/13 13:31:45;;;;;;;5.23;3.70;;;;;;;;;;5312485;26;20449;-78
2024/04/13 13:34:11;;;;;;;8.23;3.47;;;;;;;;;;5310637;26;20487;-78
2024/04/13 13:36:38;;;;;;;7.47;3.37;;;;;;;;;;5311138;26;20461;-78
2024/04/13 13:39:04;;;;;;;9.33;3.93;;;;;;;;;;5340314;26;20525;-77
2024/04/13 13:41:30;;;;;;;7.73;3.30;;;;;;;;;;5345696;26;20498;-78
2024/04/13 13:44:00;;;;;;;4.97;3.00;;;;;;;;;;5346049;26;20448;-78
2024/04/13 13:46:26;;;;;;;3.50;2.90;;;;;;;;;;5344774;26;20515;-76
2024/04/13 13:48:55;;;;;;;4.20;3.40;;;;;;;;;;5343834;26;20447;-77
2024/04/13 13:51:21;;;;;;;8.40;3.20;;;;;;;;;;5345116;26;20628;-78
2024/04/13 13:53:50;;;;;;;7.03;3.47;;;;;;;;;;5343552;26;20483;-77
2024/04/13 13:56:16;;;;;;;7.30;3.10;;;;;;;;;;5345194;26;20508;-77
2024/04/13 13:58:42;;;;;;;6.80;3.67;;;;;;;;;;5345668;26;20451;-77
2024/04/13 14:01:08;;;;;;;11.00;3.17;;;;;;;;;;5345368;26;20598;-77
2024/04/13 14:03:34;;;;;;;4.47;3.10;;;;;;;;;;5344040;26;20885;-77
2024/04/13 14:06:01;;;;;;;5.93;3.23;;;;;;;;;;5352439;26;20463;-78
2024/04/13 14:08:27;;;;;;;7.13;4.00;;;;;;;;;;5360731;26;20613;-78
2024/04/13 14:10:53;;;;;;;5.37;3.17;;;;;;;;;;5360553;26;20951;-76
2024/04/13 14:13:19;;;;;;;4.50;2.60;;;;;;;;;;5360783;26;20507;-77
2024/04/13 14:15:45;;;;;;;5.40;3.47;;;;;;;;;;5359940;26;20520;-77
2024/04/13 14:18:13;;;;;;;6.40;3.60;;;;;;;;;;5349297;26;20456;-78
2024/04/13 14:20:43;;;;;;;7.27;3.63;;;;;;;;;;5345737;26;20507;-77
2024/04/13 14:23:09;;;;;;;5.37;3.40;;;;;;;;;;5345292;26;20542;-77
2024/04/13 14:25:35;;;;;;;12.27;3.50;;;;;;;;;;5344137;26;20574;-77
2024/04/13 14:28:01;;;;;;;8.40;3.60;;;;;;;;;;5344774;26;20452;-78
2024/04/13 14:30:28;;;;;;;7.20;3.57;;;;;;;;;;5344335;26;20455;-78
2024/04/13 14:32:54;;;;;;;8.43;3.90;;;;;;;;;;5344293;26;20439;-78
2024/04/13 14:35:20;;;;;;;6.03;3.50;;;;;;;;;;5344286;26;20467;-78
2024/04/13 14:37:46;;;;;;;7.87;3.33;;;;;;;;;;5330948;26;20809;-78
2024/04/13 14:40:12;;;;;;;9.23;3.17;;;;;;;;;;5312521;26;20577;-77
2024/04/13 14:42:38;;;;;;;5.83;3.30;;;;;;;;;;5311277;26;21227;-78
2024/04/13 14:45:05;;;;;;;5.20;3.80;;;;;;;;;;5312438;26;20456;-78
2024/04/13 14:47:32;;;;;;;6.37;4.00;;;;;;;;;;5316572;26;20723;-78
2024/04/13 14:49:58;;;;;;;8.23;3.60;;;;;;;;;;5347213;26;20562;-77
2024/04/13 14:52:24;;;;;;;6.53;3.50;;;;;;;;;;5348003;26;20443;-77
2024/04/13 14:54:50;;;;;;;6.13;3.70;;;;;;;;;;5347907;26;20451;-77
2024/04/13 14:57:16;;;;;;;6.77;3.70;;;;;;;;;;5348043;26;20896;-77
2024/04/13 14:59:42;;;;;;;10.50;4.03;;;;;;;;;;5355256;26;20439;-77
2024/04/13 15:02:08;;;;;;;11.03;4.00;;;;;;;;;;5362085;26;20492;-77
2024/04/13 15:04:34;;;;;;;6.40;4.03;;;;;;;;;;5361843;26;20447;-77
2024/04/13 15:07:00;;;;;;;9.23;4.00;;;;;;;;;;5340863;26;20465;-77
2024/04/13 15:09:26;;;;;;;6.40;3.87;;;;;;;;;;5326905;26;20449;-77
2024/04/13 15:11:52;;;;;;;5.57;3.37;;;;;;;;;;5322440;26;20582;-78
2024/04/13 15:14:18;;;;;;;6.20;3.60;;;;;;;;;;5306283;26;20474;-79
2024/04/13 15:16:44;;;;;;;6.90;3.87;;;;;;;;;;5297306;27;20525;-78
2024/04/13 15:19:10;;;;;;;7.93;4.20;;;;;;;;;;5310498;26;20566;-77
2024/04/13 15:21:36;;;;;;;7.90;4.20;;;;;;;;;;5312840;26;20457;-77
2024/04/13 15:24:03;;;;;;;8.10;3.67;;;;;;;;;;5313436;26;20751;-78
2024/04/13 15:26:29;;;;;;;11.57;4.90;;;;;;;;;;5312325;26;21130;-78
2024/04/13 15:28:56;;;;;;;8.23;4.20;;;;;;;;;;5312821;26;20452;-77
2024/04/13 15:31:25;;;;;;;12.60;4.63;;;;;;;;;;5312445;26;20437;-78
2024/04/13 15:33:51;;;;;;;7.37;4.50;;;;;;;;;;5312748;26;20786;-77
2024/04/13 15:36:17;;;;;;;8.33;3.77;;;;;;;;;;5322203;26;20463;-77
2024/04/13 15:38:45;;;;;;;8.57;5.10;;;;;;;;;;5346914;26;20455;-77
2024/04/13 15:41:11;;;;;;;6.90;4.10;;;;;;;;;;5347086;26;20981;-78
2024/04/13 15:43:37;;;;;;;7.00;4.13;;;;;;;;;;5347096;26;20447;-78
2024/04/13 15:46:03;;;;;;;6.63;4.50;;;;;;;;;;5345064;26;20993;-78
2024/04/13 15:48:29;;;;;;;8.50;4.03;;;;;;;;;;5344830;26;20521;-80
2024/04/13 15:50:55;;;;;;;6.00;3.97;;;;;;;;;;5346752;26;20455;-77
2024/04/13 15:53:21;;;;;;;10.03;3.90;;;;;;;;;;5346954;26;20448;-77
2024/04/13 15:55:47;;;;;;;7.93;3.80;;;;;;;;;;5345201;26;20989;-77
2024/04/13 15:58:13;;;;;;;10.70;4.60;;;;;;;;;;5346268;26;20515;-78
2024/04/13 16:00:40;;;;;;;7.73;3.93;;;;;;;;;;5346554;26;20614;-78
2024/04/13 16:03:06;;;;;;;7.10;3.70;;;;;;;;;;5345043;26;20648;-78
2024/04/13 16:05:31;;;;;;;8.00;4.20;;;;;;;;;;5347566;26;20539;-78
2024/04/13 16:07:58;;;;;;;17.50;4.00;;;;;;;;;;5348156;26;20444;-77
2024/04/13 16:10:24;;;;;;;9.83;4.40;;;;;;;;;;5326307;26;20532;-77
2024/04/13 16:12:50;;;;;;;10.23;4.90;;;;;;;;;;5312467;26;20623;-77
2024/04/13 16:15:16;;;;;;;8.73;4.20;;;;;;;;;;5312300;26;20473;-77
2024/04/13 16:17:42;;;;;;;6.10;4.50;;;;;;;;;;5312259;26;21083;-77
2024/04/13 16:20:08;;;;;;;9.00;3.97;;;;;;;;;;5312212;26;20497;-77
2024/04/13 16:22:34;;;;;;;8.80;4.30;;;;;;;;;;5312826;26;20515;-77
2024/04/13 16:25:00;;;;;;;7.07;4.70;;;;;;;;;;5312055;26;20778;-77
2024/04/13 16:27:26;;;;;;;10.63;4.00;;;;;;;;;;5310006;26;20504;-77
2024/04/13 16:29:52;;;;;;;9.63;4.70;;;;;;;;;;5312031;26;20449;-78
2024/04/13 16:32:18;;;;;;;7.67;4.70;;;;;;;;;;5312676;26;20452;-78
2024/04/13 16:34:44;;;;;;;8.73;4.30;;;;;;;;;;5314315;26;20581;-78
2024/04/13 16:37:10;;;;;;;5.17;3.43;;;;;;;;;;5311877;26;20477;-78
2024/04/13 16:39:36;;;;;;;9.00;3.73;;;;;;;;;;5313049;26;20468;-78
2024/04/13 16:42:02;;;;;;;7.17;4.07;;;;;;;;;;5312509;26;20584;-79
2024/04/13 16:44:28;;;;;;;5.90;3.60;;;;;;;;;;5343838;26;20467;-78
2024/04/13 16:46:54;;;;;;;8.10;3.60;;;;;;;;;;5343991;26;20467;-78
2024/04/13 16:49:20;;;;;;;8.53;3.57;;;;;;;;;;5346346;26;20447;-78
2024/04/13 16:51:47;;;;;;;10.00;4.00;;;;;;;;;;5346417;26;20448;-78
2024/04/13 16:54:13;;;;;;;9.10;4.10;;;;;;;;;;5346673;26;20487;-78
2024/04/13 16:56:39;;;;;;;8.07;3.53;;;;;;;;;;5322327;26;20461;-78
2024/04/13 16:59:05;;;;;;;8.03;3.53;;;;;;;;;;5309609;26;20568;-78
2024/04/13 17:01:31;;;;;;;16.40;3.90;;;;;;;;;;5308839;26;20521;-78
2024/04/13 17:03:57;;;;;;;6.80;3.73;;;;;;;;;;5309916;26;20488;-78
2024/04/13 17:06:23;;;;;;;7.33;3.67;;;;;;;;;;5309373;26;20534;-78
2024/04/13 17:08:49;;;;;;;13.73;4.37;;;;;;;;;;5310192;26;20464;-78
2024/04/13 17:11:15;;;;;;;6.87;3.90;;;;;;;;;;5309793;26;20457;-78
2024/04/13 17:13:42;;;;;;;5.30;3.70;;;;;;;;;;5308292;26;20611;-78
2024/04/13 17:16:08;;;;;;;6.40;3.60;;;;;;;;;;5304719;21;20502;-75
2024/04/13 17:18:34;;;;;;;8.90;4.40;;;;;;;;;;5288654;27;20453;-76
2024/04/13 17:21:01;;;;;;;12.00;4.07;;;;;;;;;;5309044;27;20502;-76
2024/04/13 17:23:27;;;;;;;6.03;4.17;;;;;;;;;;5311730;26;20584;-77
2024/04/13 17:25:53;;;;;;;5.57;3.40;;;;;;;;;;5310057;26;20632;-77
2024/04/13 17:28:19;;;;;;;9.60;4.70;;;;;;;;;;5309076;27;20469;-79
2024/04/13 17:30:46;;;;;;;6.50;3.90;;;;;;;;;;5313650;26;20508;-76
2024/04/13 17:33:12;;;;;;;5.83;4.00;;;;;;;;;;5313227;26;20445;-77
2024/04/13 17:35:38;;;;;;;11.23;4.13;;;;;;;;;;5311778;26;20788;-77
2024/04/13 17:38:04;;;;;;;8.23;4.60;;;;;;;;;;5312222;27;20445;-76
2024/04/13 17:40:31;;;;;;;7.90;4.77;;;;;;;;;;5280221;27;20553;-77
2024/04/13 17:42:57;;;;;;;11.20;4.37;;;;;;;;;;5277237;27;20543;-77
2024/04/13 17:45:23;;;;;;;8.13;4.67;;;;;;;;;;5277587;27;20446;-77
2024/04/13 17:47:49;;;;;;;9.10;4.43;;;;;;;;;;5296272;27;20519;-77
2024/04/13 17:50:15;;;;;;;7.23;4.60;;;;;;;;;;5310864;27;20461;-77
2024/04/13 17:52:41;;;;;;;8.30;4.90;;;;;;;;;;5310355;27;20501;-77
2024/04/13 17:55:07;;;;;;;10.57;4.03;;;;;;;;;;5281786;27;20470;-77
2024/04/13 17:57:39;;;;;;;12.40;4.30;;;;;;;;;;5276162;27;20514;-77
2024/04/13 18:00:05;;;;;;;6.00;4.13;;;;;;;;;;5276568;27;20454;-77
2024/04/13 18:02:32;;;;;;;7.80;4.10;;;;;;;;;;5276331;27;20458;-77
2024/04/13 18:04:58;;;;;;;6.33;3.70;;;;;;;;;;5275263;27;20546;-77
2024/04/13 18:07:24;;;;;;;8.50;3.93;;;;;;;;;;5275048;27;20478;-77
2024/04/13 18:09:50;;;;;;;10.53;4.47;;;;;;;;;;5291046;27;21011;-77
2024/04/13 18:12:16;;;;;;;7.63;3.70;;;;;;;;;;5309472;27;20461;-77
2024/04/13 18:14:42;;;;;;;5.73;3.83;;;;;;;;;;5314380;27;20460;-76
2024/04/13 18:17:08;;;;;;;7.63;4.67;;;;;;;;;;5324403;26;21086;-77
2024/04/13 18:19:34;;;;;;;15.03;4.97;;;;;;;;;;5303879;26;20474;-77
2024/04/13 18:22:00;;;;;;;5.67;4.50;;;;;;;;;;5305098;26;20504;-76
2024/04/13 18:24:26;;;;;;;9.27;4.10;;;;;;;;;;5329902;27;20505;-77
2024/04/13 18:26:52;;;;;;;5.63;3.90;;;;;;;;;;5330091;26;20472;-76
2024/04/13 18:29:18;;;;;;;9.53;4.60;;;;;;;;;;5325745;27;21011;-77
2024/04/13 18:31:44;;;;;;;8.50;5.00;;;;;;;;;;5298844;26;20458;-76
2024/04/13 18:34:10;;;;;;;8.63;4.47;;;;;;;;;;5276380;27;20501;-76
2024/04/13 18:36:36;;;;;;;16.53;5.70;;;;;;;;;;5277552;27;20526;-76
2024/04/13 18:39:03;;;;;;;8.63;5.70;;;;;;;;;;5287545;27;21020;-75
2024/04/13 18:41:29;;;;;;;24.40;8.03;;;;;;;;;;5286298;27;20462;-74
2024/04/13 18:43:55;;;;;;;11.40;6.00;;;;;;;;;;5278542;26;20494;-74
2024/04/13 18:46:21;;;;;;;11.60;6.10;;;;;;;;;;5274717;27;20518;-74
2024/04/13 18:48:47;;;;;;;10.90;5.43;;;;;;;;;;5275248;27;20503;-74
2024/04/13 18:51:13;;;;;;;15.87;5.87;;;;;;;;;;5276140;27;20878;-76
2024/04/13 18:53:42;;;;;;;10.80;6.27;;;;;;;;;;5276049;27;20518;-75
2024/04/13 18:56:08;;;;;;;16.37;7.70;;;;;;;;;;5274432;27;20844;-75
2024/04/13 18:58:35;;;;;;;8.80;5.77;;;;;;;;;;5274075;27;20980;-75
2024/04/13 19:01:07;;;;;;;11.00;5.73;;;;;;;;;;5275672;27;20513;-75
2024/04/13 19:03:33;;;;;;;11.50;6.90;;;;;;;;;;5275168;27;20517;-75
2024/04/13 19:05:59;;;;;;;9.37;6.63;;;;;;;;;;5273530;27;20546;-75
2024/04/13 19:08:25;;;;;;;11.17;7.30;;;;;;;;;;5274624;27;20815;-75
2024/04/13 19:10:51;;;;;;;15.30;8.73;;;;;;;;;;5275638;27;21881;-75
2024/04/13 19:13:17;;;;;;;16.37;10.40;;;;;;;;;;5275563;27;20606;-74
2024/04/13 19:15:44;;;;;;;21.43;9.80;;;;;;;;;;5264142;27;20485;-75
2024/04/13 19:18:11;;;;;;;12.60;9.10;;;;;;;;;;5273150;27;20509;-75
2024/04/13 19:20:37;;;;;;;17.60;8.63;;;;;;;;;;5285581;27;21062;-75
2024/04/13 19:23:03;;;;;;;17.53;9.97;;;;;;;;;;5273046;27;20466;-74
2024/04/13 19:25:29;;;;;;;14.13;8.37;;;;;;;;;;5275416;27;20518;-74
2024/04/13 19:28:00;;;;;;;12.37;7.40;;;;;;;;;;5276802;27;20466;-74
2024/04/13 19:30:26;;;;;;;11.97;7.50;;;;;;;;;;5279023;26;20458;-75
2024/04/13 19:32:52;;;;;;;16.90;8.00;;;;;;;;;;5277410;27;20570;-75